Time;durP1;ratioP1;P1;durP2;ratioP2;P2;SDS_P1;SDS_P2;PMS_P1;PMS_P2;Temp;Humidity;BMP_temperature;BMP_pressure;BME280_temperature;BME280_humidity;BME280_pressure;Samples;Min_cycle;Max_cycle;Signal;HPM_P1;HPM_P2
2022/12/20 00:00:46;;;;;;;4.88;2.95;;;;;;;11.26;100.00;101117.84;4995637;28;20022;-77
2022/12/20 00:03:12;;;;;;;10.73;3.05;;;;;;;11.02;100.00;101110.56;4996536;28;20049;-77
2022/12/20 00:05:39;;;;;;;8.82;3.50;;;;;;;11.09;100.00;101103.59;4993142;28;20089;-77
2022/12/20 00:08:06;;;;;;;8.75;3.38;;;;;;;11.09;100.00;101114.56;4995830;28;20041;-77
2022/12/20 00:10:36;;;;;;;10.77;2.72;;;;;;;11.03;100.00;101121.41;4991364;28;20034;-77
2022/12/20 00:13:02;;;;;;;5.82;2.83;;;;;;;11.03;100.00;101121.41;4998964;28;20057;-78
2022/12/20 00:15:27;;;;;;;11.13;3.08;;;;;;;11.10;100.00;101124.53;4978660;28;20114;-77
2022/12/20 00:17:53;;;;;;;10.30;3.45;;;;;;;11.17;100.00;101135.91;4949772;28;20046;-77
2022/12/20 00:20:18;;;;;;;6.13;3.00;;;;;;;11.20;100.00;101125.56;4996328;28;20030;-78
2022/12/20 00:22:44;;;;;;;10.65;3.25;;;;;;;11.22;100.00;101122.72;4963765;28;23281;-78
2022/12/20 00:25:10;;;;;;;9.55;2.97;;;;;;;11.28;100.00;101124.09;4997739;28;20042;-78
2022/12/20 00:27:36;;;;;;;6.93;3.15;;;;;;;11.31;100.00;101127.47;4996507;28;20042;-77
2022/12/20 00:30:01;;;;;;;7.32;3.20;;;;;;;11.28;100.00;101110.38;4995345;28;20065;-78
2022/12/20 00:32:27;;;;;;;6.80;3.08;;;;;;;11.37;100.00;101107.78;4997962;28;20034;-77
2022/12/20 00:34:52;;;;;;;9.68;2.95;;;;;;;11.31;100.00;101101.91;4980484;28;20421;-78
2022/12/20 00:37:18;;;;;;;7.55;3.17;;;;;;;11.39;100.00;101107.69;4996634;28;20382;-77
2022/12/20 00:39:43;;;;;;;10.57;3.30;;;;;;;11.34;100.00;101109.91;4992753;28;20050;-78
2022/12/20 00:42:08;;;;;;;3.78;2.45;;;;;;;11.38;100.00;101100.47;4964128;28;20034;-78
2022/12/20 00:44:34;;;;;;;6.88;2.80;;;;;;;11.32;100.00;101099.06;4997126;28;20065;-78
2022/12/20 00:46:59;;;;;;;5.32;2.60;;;;;;;11.34;100.00;101087.97;4984260;28;20049;-77
2022/12/20 00:49:25;;;;;;;7.43;2.50;;;;;;;11.32;100.00;101088.09;4959091;28;20090;-77
2022/12/20 00:51:50;;;;;;;6.55;2.80;;;;;;;11.37;100.00;101087.75;4990653;28;20542;-78
2022/12/20 00:54:16;;;;;;;6.72;2.60;;;;;;;11.53;100.00;101088.28;4980367;28;20048;-78
2022/12/20 00:56:41;;;;;;;5.90;2.88;;;;;;;11.44;100.00;101091.72;4985860;28;20038;-77
2022/12/20 00:59:06;;;;;;;9.70;3.17;;;;;;;11.50;100.00;101079.41;4997119;28;20573;-78
2022/12/20 01:01:33;;;;;;;7.05;2.60;;;;;;;11.49;100.00;101084.00;4975234;28;20038;-78
2022/12/20 01:03:59;;;;;;;10.25;2.80;;;;;;;11.59;100.00;101084.16;4980224;28;20538;-77
2022/12/20 01:06:26;;;;;;;5.15;2.88;;;;;;;11.56;100.00;101074.31;4985027;28;20068;-78
2022/12/20 01:08:53;;;;;;;6.07;2.95;;;;;;;11.52;100.00;101074.69;4986105;28;20038;-77
2022/12/20 01:11:24;;;;;;;7.20;2.67;;;;;;;11.65;100.00;101088.28;4996751;28;20497;-77
2022/12/20 01:13:54;;;;;;;16.38;2.78;;;;;;;11.76;100.00;101088.31;4989689;28;20122;-78
2022/12/20 01:16:30;;;;;;;7.40;2.78;;;;;;;11.66;100.00;101071.72;4963264;28;20524;-77
2022/12/20 01:18:55;;;;;;;8.05;2.60;;;;;;;11.62;100.00;101072.94;4984852;28;20030;-77
2022/12/20 01:21:23;;;;;;;12.20;2.97;;;;;;;11.80;100.00;101092.53;4994029;28;20375;-77
2022/12/20 01:23:49;;;;;;;9.27;3.00;;;;;;;11.64;100.00;101095.66;4997387;28;20113;-78
2022/12/20 01:26:17;;;;;;;4.82;2.45;;;;;;;11.58;100.00;101091.50;4984328;28;20130;-77
2022/12/20 01:28:45;;;;;;;8.02;2.65;;;;;;;11.59;100.00;101093.28;4989831;28;20026;-77
2022/12/20 01:31:13;;;;;;;5.45;2.95;;;;;;;11.61;100.00;101109.59;4994529;28;20050;-77
2022/12/20 01:33:39;;;;;;;5.30;2.35;;;;;;;11.59;100.00;101107.00;4990533;28;20059;-77
2022/12/20 01:36:09;;;;;;;4.40;2.60;;;;;;;11.64;100.00;101108.47;4973412;28;20038;-76
2022/12/20 01:38:35;;;;;;;6.47;2.65;;;;;;;11.53;100.00;101091.00;4975180;28;20393;-77
2022/12/20 01:41:01;;;;;;;5.45;2.53;;;;;;;11.44;100.00;101091.72;4978867;28;20049;-77
2022/12/20 01:43:46;;;;;;;12.52;3.95;;;;;;;11.50;100.00;101093.13;4993607;28;20504;-77
2022/12/20 01:46:12;;;;;;;9.32;3.03;;;;;;;11.40;100.00;101088.38;4990275;28;20096;-77
2022/12/20 01:48:39;;;;;;;4.50;2.80;;;;;;;11.25;100.00;101078.63;4958855;28;20413;-77
2022/12/20 01:51:10;;;;;;;7.35;2.70;;;;;;;11.05;100.00;101080.16;4991230;28;20026;-77
2022/12/20 01:53:36;;;;;;;9.38;3.22;;;;;;;11.04;100.00;101076.53;4980666;28;20042;-77
2022/12/20 01:56:05;;;;;;;6.78;3.28;;;;;;;11.05;100.00;101069.19;4992052;28;20042;-77
2022/12/20 01:58:32;;;;;;;6.00;2.78;;;;;;;10.94;100.00;101078.25;4992527;28;20508;-77
2022/12/20 02:00:58;;;;;;;8.73;3.05;;;;;;;10.99;100.00;101070.56;4992591;28;20053;-77
2022/12/20 02:03:24;;;;;;;6.43;3.10;;;;;;;10.94;100.00;101058.22;4970735;28;20037;-77
2022/12/20 02:05:49;;;;;;;5.88;3.03;;;;;;;10.83;100.00;101050.81;4991781;28;20038;-77
2022/12/20 02:08:18;;;;;;;8.40;3.35;;;;;;;10.83;100.00;101043.47;4960266;28;20481;-77
2022/12/20 02:11:20;;;;;;;5.47;3.20;;;;;;;10.74;100.00;101046.94;4994036;28;20492;-77
2022/12/20 02:14:10;;;;;;;6.85;3.58;;;;;;;10.62;100.00;101040.50;4973936;28;20030;-77
2022/12/20 02:16:52;;;;;;;7.20;3.20;;;;;;;10.72;100.00;101045.28;4978884;28;20042;-77
2022/12/20 02:19:33;;;;;;;12.48;3.85;;;;;;;10.74;100.00;101033.25;4990185;28;20031;-77
2022/12/20 02:22:32;;;;;;;4.90;3.45;;;;;;;10.75;100.00;101050.53;4986049;28;20093;-77
2022/12/20 02:25:09;;;;;;;7.15;3.40;;;;;;;10.75;100.00;101032.22;4992745;28;20042;-77
2022/12/20 02:27:47;;;;;;;8.68;4.75;;;;;;;10.76;100.00;101020.28;5005072;28;20042;-76
2022/12/20 02:30:21;;;;;;;9.55;3.33;;;;;;;10.71;100.00;101041.69;4985045;28;20046;-77
2022/12/20 02:33:01;;;;;;;4.55;3.17;;;;;;;10.79;100.00;101065.72;4989742;28;20043;-77
2022/12/20 02:35:33;;;;;;;8.95;3.88;;;;;;;10.88;100.00;101043.13;4990421;28;20393;-77
2022/12/20 02:38:01;;;;;;;6.63;3.50;;;;;;;10.84;100.00;101031.53;4975534;28;20029;-77
2022/12/20 02:40:38;;;;;;;8.75;3.50;;;;;;;10.95;100.00;101040.78;4988160;28;20301;-77
2022/12/20 02:45:14;;;;;;;7.45;3.08;;;;;;;10.89;100.00;101030.28;4957334;28;20046;-76
2022/12/20 02:45:54;;;;;;;6.63;3.28;;;;;;;10.95;100.00;101030.72;4985867;28;20034;-78
2022/12/20 02:48:21;;;;;;;8.88;4.22;;;;;;;10.93;100.00;101026.31;4974095;28;20039;-77
2022/12/20 02:50:51;;;;;;;6.65;3.22;;;;;;;11.18;100.00;101011.56;4987826;28;20646;-77
2022/12/20 02:53:17;;;;;;;12.32;3.90;;;;;;;11.18;100.00;101004.22;5008123;28;20112;-77
2022/12/20 02:55:46;;;;;;;5.40;3.05;;;;;;;11.12;100.00;100996.50;4992050;28;20034;-77
2022/12/20 02:58:37;;;;;;;4.78;3.08;;;;;;;11.24;100.00;101002.00;4992924;28;20062;-78
2022/12/20 03:01:09;;;;;;;8.00;3.10;;;;;;;11.31;100.00;100992.28;4990094;28;20054;-79
2022/12/20 03:03:35;;;;;;;8.50;3.13;;;;;;;11.27;100.00;100988.03;4995329;28;20375;-77
2022/12/20 03:06:01;;;;;;;8.68;3.28;;;;;;;11.20;100.00;100979.44;4994137;28;20027;-77
2022/12/20 03:08:26;;;;;;;12.90;3.25;;;;;;;11.29;100.00;100975.94;4997701;28;20432;-78
2022/12/20 03:10:53;;;;;;;9.82;3.30;;;;;;;11.36;100.00;100993.66;4967863;28;20500;-77
2022/12/20 03:13:19;;;;;;;7.03;2.67;;;;;;;11.40;100.00;100981.44;4993350;28;20038;-77
2022/12/20 03:15:45;;;;;;;7.05;3.05;;;;;;;11.34;100.00;100992.03;4973591;28;20347;-77
2022/12/20 03:18:11;;;;;;;12.38;3.03;;;;;;;11.35;100.00;100994.66;4980028;28;20133;-77
2022/12/20 03:20:36;;;;;;;9.25;2.58;;;;;;;11.39;100.00;100978.81;4992099;28;20046;-78
2022/12/20 03:23:02;;;;;;;8.63;3.10;;;;;;;11.34;100.00;100992.03;4995894;28;20370;-77
2022/12/20 03:25:27;;;;;;;4.88;2.65;;;;;;;11.51;100.00;101004.38;4987469;28;20031;-78
2022/12/20 03:27:53;;;;;;;15.93;4.40;;;;;;;11.58;100.00;100994.66;4997284;28;20046;-77
2022/12/20 03:30:18;;;;;;;7.93;2.63;;;;;;;11.64;100.00;100990.53;4995365;28;20058;-77
2022/12/20 03:32:44;;;;;;;5.60;2.95;;;;;;;11.66;100.00;100991.28;4995904;28;20117;-77
2022/12/20 03:35:09;;;;;;;3.75;2.83;;;;;;;11.68;100.00;100984.69;4995985;28;20034;-78
2022/12/20 03:37:35;;;;;;;6.00;2.80;;;;;;;11.63;100.00;100975.97;4993983;28;20462;-78
2022/12/20 03:40:00;;;;;;;8.48;2.95;;;;;;;11.80;100.00;100988.28;4993995;28;20050;-78
2022/12/20 03:42:26;;;;;;;7.00;2.63;;;;;;;11.86;100.00;100976.81;4979571;28;20054;-78
2022/12/20 03:44:51;;;;;;;9.10;2.45;;;;;;;11.90;100.00;100989.28;4980670;28;20081;-77
2022/12/20 03:47:17;;;;;;;6.88;2.72;;;;;;;11.80;100.00;100990.16;4994014;28;20478;-77
2022/12/20 03:49:42;;;;;;;10.60;2.78;;;;;;;11.87;100.00;100995.03;4979280;28;20136;-77
2022/12/20 03:52:11;;;;;;;10.90;3.05;;;;;;;11.85;100.00;100986.03;4995459;28;20109;-77
2022/12/20 03:54:36;;;;;;;8.70;2.97;;;;;;;11.83;100.00;100985.28;4994787;28;20469;-77
2022/12/20 03:57:02;;;;;;;6.72;2.72;;;;;;;11.89;100.00;100998.50;4958492;28;20034;-77
2022/12/20 03:59:30;;;;;;;7.75;2.65;;;;;;;11.82;100.00;100999.13;4987677;28;20050;-77
2022/12/20 04:01:56;;;;;;;8.45;2.80;;;;;;;11.78;100.00;101004.00;4994479;28;20121;-77
2022/12/20 04:04:21;;;;;;;8.88;3.03;;;;;;;11.85;100.00;100999.75;4995318;28;20125;-77
2022/12/20 04:06:47;;;;;;;6.88;3.13;;;;;;;11.90;100.00;101002.13;4994281;28;20030;-77
2022/12/20 04:09:13;;;;;;;6.55;2.65;;;;;;;11.88;100.00;100991.25;4995562;28;20042;-77
2022/12/20 04:11:38;;;;;;;8.43;3.13;;;;;;;11.93;100.00;100986.31;4976417;28;20105;-77
2022/12/20 04:14:04;;;;;;;6.10;2.75;;;;;;;11.75;100.00;100994.13;4993173;28;20042;-77
2022/12/20 04:16:30;;;;;;;4.32;2.72;;;;;;;11.86;100.00;100996.00;4991786;28;20033;-77
2022/12/20 04:18:55;;;;;;;11.32;3.88;;;;;;;11.82;100.00;100986.28;4995847;28;20046;-77
2022/12/20 04:21:41;;;;;;;9.55;3.28;;;;;;;11.88;100.00;100987.66;4986644;28;20042;-77
2022/12/20 04:24:07;;;;;;;6.45;2.90;;;;;;;11.87;100.00;100984.06;4976420;28;20061;-77
2022/12/20 04:26:32;;;;;;;10.13;2.80;;;;;;;11.88;100.00;100977.53;4990690;28;20035;-77
2022/12/20 04:28:58;;;;;;;6.30;2.80;;;;;;;11.77;100.00;100981.19;4989771;28;20042;-77
2022/12/20 04:31:23;;;;;;;9.20;2.88;;;;;;;11.47;100.00;100975.47;4973129;28;20058;-77
2022/12/20 04:33:49;;;;;;;6.85;2.65;;;;;;;11.45;100.00;100969.25;4994868;28;20097;-77
2022/12/20 04:36:15;;;;;;;13.32;3.60;;;;;;;11.56;100.00;100970.13;4996129;28;20393;-77
2022/12/20 04:38:41;;;;;;;11.30;3.90;;;;;;;11.43;100.00;100960.25;4995174;28;20030;-77
2022/12/20 04:41:06;;;;;;;7.53;3.10;;;;;;;11.53;100.00;100961.25;4996952;28;20034;-77
2022/12/20 04:43:32;;;;;;;10.75;3.38;;;;;;;11.65;100.00;100965.72;4976835;28;20046;-78
2022/12/20 04:45:57;;;;;;;7.50;2.97;;;;;;;11.64;100.00;100957.63;4994251;28;20125;-77
2022/12/20 04:48:27;;;;;;;14.13;4.20;;;;;;;11.61;100.00;100955.13;4994580;28;20636;-77
2022/12/20 04:50:54;;;;;;;5.82;3.08;;;;;;;11.62;100.00;100957.75;4993149;28;20054;-77
2022/12/20 04:56:04;;;;;;;10.73;3.22;;;;;;;11.51;100.00;100968.72;4995083;28;20038;-77
2022/12/20 04:58:30;;;;;;;14.25;3.40;;;;;;;11.47;100.00;100956.28;4993970;28;20117;-77
2022/12/20 05:00:56;;;;;;;7.75;2.70;;;;;;;11.53;100.00;100958.53;4995009;28;20062;-76
2022/12/20 05:03:23;;;;;;;7.70;2.83;;;;;;;11.40;100.00;100956.78;4993393;28;20039;-77
2022/12/20 05:05:48;;;;;;;7.82;3.30;;;;;;;11.35;100.00;100958.16;4989924;28;20034;-77
2022/12/20 05:08:14;;;;;;;10.43;3.80;;;;;;;11.09;100.00;100950.16;4992104;28;20046;-77
2022/12/20 05:10:39;;;;;;;8.60;3.70;;;;;;;11.29;100.00;100951.28;4980147;28;20053;-77
2022/12/20 05:13:05;;;;;;;7.03;3.92;;;;;;;11.08;100.00;100944.78;4991871;28;20505;-77
2022/12/20 05:15:31;;;;;;;6.10;3.05;;;;;;;11.16;100.00;100951.38;4990787;28;20039;-77
2022/12/20 05:17:58;;;;;;;8.93;3.33;;;;;;;11.01;100.00;100927.97;4976187;28;20035;-77
2022/12/20 05:20:28;;;;;;;9.50;3.90;;;;;;;11.09;100.00;100925.47;4994579;28;20042;-77
2022/12/20 05:28:34;;;;;;;9.77;3.80;;;;;;;10.93;100.00;100922.22;4978782;28;20724;-77
2022/12/20 05:31:00;;;;;;;9.55;3.70;;;;;;;11.04;100.00;100927.72;4989458;28;20065;-77
2022/12/20 05:33:26;;;;;;;15.40;4.00;;;;;;;10.91;100.00;100913.28;4994281;28;20042;-77
2022/12/20 05:35:51;;;;;;;10.23;3.75;;;;;;;10.90;100.00;100920.59;4976059;28;20118;-78
2022/12/20 05:38:17;;;;;;;9.77;4.13;;;;;;;10.89;100.00;100921.59;4972161;28;20043;-77
2022/12/20 05:40:43;;;;;;;14.63;4.50;;;;;;;10.79;100.00;100904.13;4973917;28;20145;-76
2022/12/20 05:43:08;;;;;;;11.68;3.80;;;;;;;10.68;100.00;100923.31;4991594;28;20034;-77
2022/12/20 05:45:34;;;;;;;10.30;3.90;;;;;;;10.70;100.00;100919.44;4987834;28;20050;-77
2022/12/20 05:48:00;;;;;;;8.43;3.10;;;;;;;10.84;100.00;100916.50;4967918;28;20065;-77
2022/12/20 05:50:26;;;;;;;9.73;3.85;;;;;;;10.70;100.00;100911.22;4991429;28;20031;-77
2022/12/20 05:52:51;;;;;;;7.32;3.70;;;;;;;10.79;100.00;100907.78;4991467;28;20118;-77
2022/12/20 05:55:16;;;;;;;11.98;3.80;;;;;;;10.78;100.00;100895.06;4958368;28;20066;-78
2022/12/20 05:57:42;;;;;;;9.75;4.38;;;;;;;10.69;100.00;100904.03;4992695;28;20097;-77
2022/12/20 06:00:08;;;;;;;12.98;4.47;;;;;;;10.66;100.00;100899.66;4989539;28;20109;-77
2022/12/20 06:02:34;;;;;;;10.88;4.57;;;;;;;10.65;100.00;100905.25;4991731;28;20141;-77
2022/12/20 06:04:59;;;;;;;12.68;4.30;;;;;;;10.56;100.00;100901.38;4993794;28;20117;-77
2022/12/20 06:07:27;;;;;;;11.02;4.25;;;;;;;10.61;100.00;100901.88;4977496;28;20103;-76
2022/12/20 06:09:53;;;;;;;10.10;4.35;;;;;;;10.57;100.00;100894.03;4976590;28;20038;-77
2022/12/20 06:12:19;;;;;;;8.82;4.38;;;;;;;10.45;100.00;100891.25;4992056;28;20062;-76
2022/12/20 06:14:45;;;;;;;8.98;3.80;;;;;;;10.33;100.00;100874.91;4974910;28;20038;-77
2022/12/20 06:17:10;;;;;;;6.43;3.70;;;;;;;10.51;100.00;100884.44;4990962;28;20042;-77
2022/12/20 06:19:36;;;;;;;13.75;4.30;;;;;;;10.59;100.00;100872.84;4985718;28;20089;-77
2022/12/20 06:22:02;;;;;;;6.78;3.58;;;;;;;10.72;100.00;100870.88;4990198;28;20445;-77
2022/12/20 06:24:28;;;;;;;8.02;3.65;;;;;;;10.57;100.00;100852.94;4991536;28;20041;-77
2022/12/20 06:26:53;;;;;;;17.25;3.70;;;;;;;10.73;100.00;100863.56;4975086;28;20406;-77
2022/12/20 06:29:19;;;;;;;12.32;3.33;;;;;;;10.75;100.00;100862.44;4976336;28;20065;-77
2022/12/20 06:31:46;;;;;;;6.72;3.75;;;;;;;10.59;100.00;100876.50;4990812;28;20112;-77
2022/12/20 06:34:12;;;;;;;9.70;3.40;;;;;;;10.69;100.00;100879.38;4993406;28;20061;-76
2022/12/20 06:36:39;;;;;;;8.43;3.15;;;;;;;10.58;100.00;100865.66;4990835;28;20054;-76
2022/12/20 06:39:04;;;;;;;8.52;4.05;;;;;;;10.75;100.00;100875.25;4955910;28;20055;-77
2022/12/20 06:41:30;;;;;;;11.45;3.20;;;;;;;10.81;100.00;100878.38;4983493;28;20038;-76
2022/12/20 06:43:55;;;;;;;5.95;3.00;;;;;;;10.80;100.00;100865.66;4979112;28;20038;-77
2022/12/20 06:46:20;;;;;;;11.32;3.33;;;;;;;10.83;100.00;100867.31;4975141;28;20044;-77
2022/12/20 06:48:46;;;;;;;14.48;3.45;;;;;;;10.60;100.00;100845.34;4988753;28;20438;-77
2022/12/20 06:51:11;;;;;;;4.63;2.90;;;;;;;10.66;100.00;100865.94;4991261;28;20042;-77
2022/12/20 06:53:37;;;;;;;14.07;3.45;;;;;;;10.77;100.00;100856.84;4992384;28;20042;-77
2022/12/20 06:56:02;;;;;;;10.43;3.53;;;;;;;10.83;100.00;100862.69;4942275;28;20038;-77
2022/12/20 06:58:28;;;;;;;8.35;2.80;;;;;;;10.75;100.00;100840.53;4974852;28;20069;-76
2022/12/20 07:00:54;;;;;;;11.77;3.17;;;;;;;10.77;100.00;100843.13;4991556;28;20043;-78
2022/12/20 07:03:19;;;;;;;5.40;2.85;;;;;;;10.75;100.00;100845.13;4992251;28;20478;-77
2022/12/20 07:05:50;;;;;;;9.35;3.45;;;;;;;10.73;100.00;100831.56;4990223;28;20045;-78
2022/12/20 07:08:16;;;;;;;7.20;2.92;;;;;;;10.78;100.00;100845.75;4993559;28;20457;-78
2022/12/20 07:10:41;;;;;;;7.85;3.15;;;;;;;10.81;100.00;100844.66;4993668;28;20070;-78
2022/12/20 07:13:08;;;;;;;4.03;2.50;;;;;;;10.77;100.00;100860.47;4991770;28;20049;-78
2022/12/20 07:15:34;;;;;;;8.00;3.17;;;;;;;10.91;100.00;100867.56;4987584;28;20448;-78
2022/12/20 07:17:59;;;;;;;8.02;3.10;;;;;;;10.86;100.00;100861.59;4992124;28;20038;-78
2022/12/20 07:20:24;;;;;;;10.40;3.33;;;;;;;10.94;100.00;100864.56;4991465;28;20387;-78
2022/12/20 07:22:50;;;;;;;6.10;2.92;;;;;;;10.77;100.00;100860.47;4973652;28;20042;-78
2022/12/20 07:25:15;;;;;;;13.77;3.78;;;;;;;10.94;100.00;100859.09;4992153;28;20508;-77
2022/12/20 07:27:41;;;;;;;13.55;3.53;;;;;;;10.96;100.00;100858.97;4987815;28;20038;-77
2022/12/20 07:30:07;;;;;;;6.20;2.67;;;;;;;10.95;100.00;100854.47;4975244;28;20437;-77
2022/12/20 07:32:32;;;;;;;9.30;3.22;;;;;;;10.96;100.00;100861.72;4988484;28;20042;-77
2022/12/20 07:34:58;;;;;;;8.20;3.75;;;;;;;10.92;100.00;100861.09;4967816;28;20030;-77
2022/12/20 07:37:23;;;;;;;19.00;3.15;;;;;;;10.91;100.00;100864.81;4986703;28;20510;-77
2022/12/20 07:39:48;;;;;;;5.75;3.10;;;;;;;10.99;100.00;100862.34;4972858;28;20057;-77
2022/12/20 07:42:15;;;;;;;9.50;3.17;;;;;;;10.93;100.00;100873.78;4985723;28;20066;-78
2022/12/20 07:44:40;;;;;;;5.75;2.70;;;;;;;11.11;100.00;100873.31;4992409;28;20046;-77
2022/12/20 07:47:06;;;;;;;7.78;2.85;;;;;;;11.04;100.00;100870.19;4993298;28;20042;-78
2022/12/20 07:49:31;;;;;;;5.80;2.63;;;;;;;11.07;100.00;100869.06;4990794;28;20463;-78
2022/12/20 07:51:58;;;;;;;7.22;2.60;;;;;;;10.97;100.00;100866.19;4984094;28;20035;-78
2022/12/20 07:54:34;;;;;;;12.80;3.08;;;;;;;11.09;100.00;100865.19;4989895;28;20105;-78
2022/12/20 07:57:25;;;;;;;8.15;3.20;;;;;;;11.15;100.00;100858.34;4997544;28;20093;-78
2022/12/20 07:59:55;;;;;;;6.93;2.60;;;;;;;11.12;100.00;100867.69;4997089;28;20030;-78
2022/12/20 08:02:31;;;;;;;6.30;2.67;;;;;;;11.12;100.00;100866.84;4996898;28;20030;-78
2022/12/20 08:04:57;;;;;;;7.38;2.85;;;;;;;11.15;100.00;100861.97;4996753;28;20118;-78
2022/12/20 08:07:23;;;;;;;7.90;2.50;;;;;;;11.27;100.00;100876.53;4993237;28;20468;-78
2022/12/20 08:09:48;;;;;;;3.15;2.22;;;;;;;11.20;100.00;100880.78;4998570;28;20577;-78
2022/12/20 08:12:17;;;;;;;6.82;2.35;;;;;;;11.12;100.00;100886.88;4996021;28;20038;-78
2022/12/20 08:14:42;;;;;;;10.32;2.35;;;;;;;11.27;100.00;100895.72;4989859;28;20071;-77
2022/12/20 08:17:08;;;;;;;6.20;2.60;;;;;;;11.22;100.00;100887.88;4991496;28;20406;-78
2022/12/20 08:19:34;;;;;;;6.53;2.65;;;;;;;11.11;100.00;100882.38;4980270;28;20134;-78
2022/12/20 08:21:59;;;;;;;7.72;2.83;;;;;;;10.96;100.00;100880.91;4994749;28;20405;-78
2022/12/20 08:24:25;;;;;;;7.72;3.15;;;;;;;10.87;100.00;100879.78;4996310;28;20038;-78
2022/12/20 08:26:50;;;;;;;8.80;3.00;;;;;;;10.92;100.00;100887.59;4980317;28;20120;-77
2022/12/20 08:29:16;;;;;;;9.43;3.17;;;;;;;10.92;100.00;100885.75;4997531;28;20088;-78
2022/12/20 08:31:41;;;;;;;7.72;2.67;;;;;;;11.03;100.00;100887.59;4997817;28;20022;-77
2022/12/20 08:34:08;;;;;;;7.95;3.50;;;;;;;10.97;100.00;100879.88;4966643;28;20045;-77
2022/12/20 08:36:33;;;;;;;5.30;2.78;;;;;;;11.07;100.00;100889.13;4976014;28;20044;-78
2022/12/20 08:39:02;;;;;;;4.78;2.83;;;;;;;11.01;100.00;100881.38;4989325;28;20037;-78
2022/12/20 08:41:28;;;;;;;20.02;3.75;;;;;;;11.12;100.00;100884.13;4997350;28;20398;-78
2022/12/20 08:43:53;;;;;;;6.32;2.75;;;;;;;11.18;100.00;100883.66;4994737;28;20044;-78
2022/12/20 08:46:19;;;;;;;10.25;3.03;;;;;;;11.29;100.00;100888.22;4977807;28;20038;-77
2022/12/20 08:48:44;;;;;;;7.93;2.00;;;;;;;11.38;100.00;100884.75;4973343;28;20519;-77
2022/12/20 08:51:10;;;;;;;7.32;2.53;;;;;;;11.35;100.00;100870.44;4992471;28;20034;-77
2022/12/20 08:53:37;;;;;;;5.72;2.13;;;;;;;11.49;100.00;100883.84;4990059;28;20034;-78
2022/12/20 08:56:11;;;;;;;16.05;2.40;;;;;;;11.34;100.00;100875.00;4974492;28;20045;-77
2022/12/20 08:58:37;;;;;;;8.95;2.30;;;;;;;11.63;100.00;100870.88;4996091;28;20398;-78
2022/12/20 09:01:05;;;;;;;9.55;1.70;;;;;;;11.70;100.00;100867.47;4993025;28;20487;-78
2022/12/20 09:03:31;;;;;;;4.15;1.90;;;;;;;11.66;100.00;100870.59;4994403;28;20125;-77
2022/12/20 09:05:58;;;;;;;12.77;4.53;;;;;;;11.69;100.00;100873.97;4994265;28;20073;-77
2022/12/20 09:08:24;;;;;;;8.90;2.13;;;;;;;11.63;100.00;100869.00;4996497;28;20380;-78
2022/12/20 09:10:50;;;;;;;4.88;2.10;;;;;;;11.70;100.00;100862.00;4995239;28;20026;-77
2022/12/20 09:13:15;;;;;;;25.13;2.65;;;;;;;11.72;100.00;100859.13;4974829;28;20394;-78
2022/12/20 09:15:42;;;;;;;7.45;2.10;;;;;;;11.71;100.00;100855.53;4993585;28;20065;-78
2022/12/20 09:18:07;;;;;;;10.23;2.03;;;;;;;11.68;100.00;100854.91;4994998;28;20046;-78
2022/12/20 09:20:33;;;;;;;6.07;2.17;;;;;;;11.73;100.00;100856.25;4976348;28;20112;-77
2022/12/20 09:22:59;;;;;;;6.28;2.00;;;;;;;11.86;100.00;100864.31;4971313;28;20477;-77
2022/12/20 09:25:26;;;;;;;6.63;2.40;;;;;;;11.86;100.00;100855.22;4974552;28;20042;-77
2022/12/20 09:27:54;;;;;;;6.60;2.10;;;;;;;11.81;100.00;100860.25;5008710;28;20238;-77
2022/12/20 09:30:19;;;;;;;8.90;2.67;;;;;;;11.80;100.00;100850.25;4979481;28;20501;-77
2022/12/20 09:32:45;;;;;;;17.45;2.67;;;;;;;11.83;100.00;100859.09;4988774;28;20120;-78
2022/12/20 09:35:10;;;;;;;8.48;2.30;;;;;;;11.72;100.00;100849.03;4994593;28;20170;-77
2022/12/20 09:37:36;;;;;;;6.30;2.55;;;;;;;11.67;100.00;100847.66;4993689;28;20042;-77
2022/12/20 09:40:01;;;;;;;5.93;2.20;;;;;;;11.68;100.00;100843.94;4959733;28;20051;-77
2022/12/20 09:42:29;;;;;;;6.70;1.90;;;;;;;11.80;100.00;100861.22;4988737;28;20105;-78
2022/12/20 09:45:02;;;;;;;4.75;2.25;;;;;;;11.91;100.00;100856.59;5002347;28;20049;-77
2022/12/20 09:47:33;;;;;;;6.30;2.22;;;;;;;11.81;100.00;100839.16;4982411;28;20508;-77
2022/12/20 09:49:59;;;;;;;5.38;2.50;;;;;;;11.90;100.00;100860.34;4993837;28;20038;-77
2022/12/20 09:52:40;;;;;;;9.32;1.90;;;;;;;11.86;100.00;100847.88;4975239;28;20049;-77
2022/12/20 09:55:16;;;;;;;4.18;1.98;;;;;;;11.92;100.00;100843.75;4977959;28;20039;-77
2022/12/20 09:57:56;;;;;;;14.95;2.88;;;;;;;12.01;100.00;100836.63;4984015;28;20035;-77
2022/12/20 10:00:21;;;;;;;7.65;2.40;;;;;;;11.85;100.00;100837.88;4977326;28;20400;-77
2022/12/20 10:02:48;;;;;;;8.57;2.05;;;;;;;11.89;100.00;100847.59;4992670;28;20038;-77
2022/12/20 10:05:30;;;;;;;5.38;1.90;;;;;;;11.83;100.00;100828.91;4989943;28;20065;-77
2022/12/20 10:08:14;;;;;;;18.92;11.43;;;;;;;11.84;100.00;100840.75;4980721;28;20026;-77
2022/12/20 10:10:51;;;;;;;8.98;2.03;;;;;;;11.86;100.00;100847.00;4987186;28;20022;-77
2022/12/20 10:13:30;;;;;;;3.42;2.08;;;;;;;11.86;100.00;100847.88;4988363;28;20034;-77
2022/12/20 10:16:06;;;;;;;6.40;2.03;;;;;;;11.89;100.00;100842.13;4992049;28;20030;-77
2022/12/20 10:18:56;;;;;;;6.38;2.30;;;;;;;11.90;100.00;100846.63;4986965;28;20038;-77
2022/12/20 10:21:27;;;;;;;7.18;2.30;;;;;;;11.85;100.00;100837.03;4993707;28;20030;-77
2022/12/20 10:24:22;;;;;;;9.85;2.45;;;;;;;11.95;100.00;100824.28;4980348;28;20490;-77
2022/12/20 10:26:50;;;;;;;9.30;2.33;;;;;;;11.93;100.00;100823.56;4963648;28;20054;-77
2022/12/20 10:29:17;;;;;;;5.85;2.47;;;;;;;11.98;100.00;100829.50;4990255;28;20070;-77
2022/12/20 10:31:42;;;;;;;6.85;2.30;;;;;;;11.92;100.00;100819.06;4980119;28;20030;-77
2022/12/20 10:34:07;;;;;;;8.35;2.30;;;;;;;12.06;100.00;100824.22;4982148;28;20048;-77
2022/12/20 10:36:35;;;;;;;9.25;2.95;;;;;;;12.08;100.00;100826.84;4994368;28;20113;-77
2022/12/20 10:39:06;;;;;;;9.18;2.28;;;;;;;12.05;100.00;100824.38;4989858;28;20043;-78
2022/12/20 10:41:38;;;;;;;8.55;2.03;;;;;;;12.14;100.00;100820.84;4984339;28;20038;-77
2022/12/20 10:44:19;;;;;;;9.77;2.70;;;;;;;12.08;100.00;100832.34;4992186;28;20418;-77
2022/12/20 10:46:47;;;;;;;7.30;2.35;;;;;;;11.95;100.00;100827.03;4980878;28;20076;-77
2022/12/20 10:49:28;;;;;;;6.28;2.47;;;;;;;11.77;100.00;100826.69;4993726;28;20034;-77
2022/12/20 10:51:56;;;;;;;11.68;2.75;;;;;;;11.59;100.00;100821.78;4975815;28;20038;-77
2022/12/20 10:54:43;;;;;;;7.93;2.50;;;;;;;11.48;100.00;100807.19;4975746;28;20030;-77
2022/12/20 10:57:15;;;;;;;4.75;2.70;;;;;;;11.48;100.00;100815.44;4992193;28;20489;-77
2022/12/20 10:59:52;;;;;;;5.22;2.67;;;;;;;11.43;100.00;100804.88;4991876;28;20027;-77
2022/12/20 11:02:31;;;;;;;4.63;2.55;;;;;;;11.37;100.00;100798.00;4991391;28;20046;-77
2022/12/20 11:05:01;;;;;;;8.60;2.78;;;;;;;11.29;100.00;100799.66;4991328;28;20037;-76
2022/12/20 11:07:32;;;;;;;8.48;3.13;;;;;;;11.24;100.00;100805.53;4993123;28;20553;-77
2022/12/20 11:10:00;;;;;;;11.30;3.58;;;;;;;11.24;100.00;100799.19;4992262;28;20061;-77
2022/12/20 11:12:26;;;;;;;5.97;3.70;;;;;;;11.20;100.00;100793.94;4991624;28;20027;-77
2022/12/20 11:15:08;;;;;;;10.65;4.93;;;;;;;11.19;100.00;100797.66;4993045;28;20490;-76
2022/12/20 11:17:40;;;;;;;14.07;4.32;;;;;;;11.18;100.00;100793.22;4991812;28;20045;-76
2022/12/20 11:20:40;;;;;;;15.35;4.35;;;;;;;11.14;100.00;100799.94;4989328;28;20482;-76
2022/12/20 11:23:27;;;;;;;11.02;4.32;;;;;;;11.26;100.00;100791.69;4991199;28;20085;-76
2022/12/20 11:26:15;;;;;;;11.80;4.30;;;;;;;11.26;100.00;100781.59;4995247;28;20038;-76
2022/12/20 11:28:57;;;;;;;9.45;4.57;;;;;;;11.30;100.00;100785.84;4994647;28;20065;-76